KBGE/BGE METAR and TAF weather

Enter ICAO airport designator
Station Type Date Time Source
KBGE METAR 2018/10/10 19:50 UTC NOAA

KBGE 101950Z AUTO 11030G43KT 2SM 25/23 A2911 RMK AO2


Station Type Date Time Source
KBGE Decoded METAR 2018/10/10 19:50 UTC NOAA

Bainbridge, Decatur County Industrial Air Park Airport, GA, United States (KBGE) 30-58N 084-38W
Oct 10, 2018 - 03:50 PM EDT / 2018.10.10 1950 UTC
Wind: from the ESE (110 degrees) at 35 MPH (30 KT) gusting to 49 MPH (43 KT):0
Visibility: 2 mile(s):0
Temperature: 77 F (25 C)
Dew Point: 73 F (23 C)
Relative Humidity: 88%
Pressure (altimeter): 29.11 in. Hg (985 hPa)
ob: KBGE 101950Z AUTO 11030G43KT 2SM 25/23 A2911 RMK AO2
cycle: 20

Station Type Date Time Source
KBGE TAF UTC NOAA

Error!


Example: see airport list